sensor_id;sensor_type;location;lat;lon;timestamp;temperature;humidity
66140;DHT22;52945;51.908;8.364;2023-01-16T00:02:16;8.00;68.70
66140;DHT22;52945;51.908;8.364;2023-01-16T00:05:17;8.00;68.70
66140;DHT22;52945;51.908;8.364;2023-01-16T00:08:18;7.90;68.80
66140;DHT22;52945;51.908;8.364;2023-01-16T00:11:18;7.90;68.90
66140;DHT22;52945;51.908;8.364;2023-01-16T00:14:19;7.90;68.80
66140;DHT22;52945;51.908;8.364;2023-01-16T00:17:19;8.00;68.70
66140;DHT22;52945;51.908;8.364;2023-01-16T00:20:20;8.00;68.70
66140;DHT22;52945;51.908;8.364;2023-01-16T00:23:21;8.00;68.70
66140;DHT22;52945;51.908;8.364;2023-01-16T00:26:22;7.90;68.70
66140;DHT22;52945;51.908;8.364;2023-01-16T00:29:22;7.90;68.50
66140;DHT22;52945;51.908;8.364;2023-01-16T00:32:23;7.80;68.50
66140;DHT22;52945;51.908;8.364;2023-01-16T00:35:24;7.90;68.40
66140;DHT22;52945;51.908;8.364;2023-01-16T00:38:26;7.80;68.30
66140;DHT22;52945;51.908;8.364;2023-01-16T00:41:27;7.80;68.30
66140;DHT22;52945;51.908;8.364;2023-01-16T00:44:27;7.70;68.40
66140;DHT22;52945;51.908;8.364;2023-01-16T00:47:28;7.80;68.20
66140;DHT22;52945;51.908;8.364;2023-01-16T00:50:28;7.70;68.20
66140;DHT22;52945;51.908;8.364;2023-01-16T00:53:29;7.70;68.40
66140;DHT22;52945;51.908;8.364;2023-01-16T00:56:30;7.60;68.40
66140;DHT22;52945;51.908;8.364;2023-01-16T00:59:30;7.70;68.40
66140;DHT22;52945;51.908;8.364;2023-01-16T01:02:31;7.70;68.40
66140;DHT22;52945;51.908;8.364;2023-01-16T01:05:35;7.70;68.60
66140;DHT22;52945;51.908;8.364;2023-01-16T01:08:37;7.70;68.60
66140;DHT22;52945;51.908;8.364;2023-01-16T01:11:37;7.70;68.50
66140;DHT22;52945;51.908;8.364;2023-01-16T01:14:38;7.70;68.60
66140;DHT22;52945;51.908;8.364;2023-01-16T01:17:38;7.60;68.70
66140;DHT22;52945;51.908;8.364;2023-01-16T01:20:39;7.60;68.60
66140;DHT22;52945;51.908;8.364;2023-01-16T01:23:39;7.60;69.00
66140;DHT22;52945;51.908;8.364;2023-01-16T01:26:40;7.60;69.20
66140;DHT22;52945;51.908;8.364;2023-01-16T01:29:41;7.60;69.30
66140;DHT22;52945;51.908;8.364;2023-01-16T01:32:41;7.60;69.40
66140;DHT22;52945;51.908;8.364;2023-01-16T01:35:42;7.60;69.40
66140;DHT22;52945;51.908;8.364;2023-01-16T01:38:42;7.50;69.80
66140;DHT22;52945;51.908;8.364;2023-01-16T01:41:44;7.60;69.50
66140;DHT22;52945;51.908;8.364;2023-01-16T01:47:59;7.50;69.70
66140;DHT22;52945;51.908;8.364;2023-01-16T01:51:06;7.60;69.60
66140;DHT22;52945;51.908;8.364;2023-01-16T01:54:15;7.60;69.50
66140;DHT22;52945;51.908;8.364;2023-01-16T01:57:22;7.50;69.60
66140;DHT22;52945;51.908;8.364;2023-01-16T02:00:24;7.50;69.40
66140;DHT22;52945;51.908;8.364;2023-01-16T02:03:42;7.60;69.50
66140;DHT22;52945;51.908;8.364;2023-01-16T02:06:48;7.50;69.50
66140;DHT22;52945;51.908;8.364;2023-01-16T02:09:52;7.40;69.70
66140;DHT22;52945;51.908;8.364;2023-01-16T02:12:57;7.40;69.70
66140;DHT22;52945;51.908;8.364;2023-01-16T02:15:58;7.40;69.70
66140;DHT22;52945;51.908;8.364;2023-01-16T02:19:23;7.40;69.60
66140;DHT22;52945;51.908;8.364;2023-01-16T02:22:38;7.30;69.50
66140;DHT22;52945;51.908;8.364;2023-01-16T02:32:16;7.30;69.30
66140;DHT22;52945;51.908;8.364;2023-01-16T02:55:32;7.30;69.50
66140;DHT22;52945;51.908;8.364;2023-01-16T02:58:41;7.30;69.50
66140;DHT22;52945;51.908;8.364;2023-01-16T03:01:45;7.20;69.80
66140;DHT22;52945;51.908;8.364;2023-01-16T03:04:49;7.20;70.00
66140;DHT22;52945;51.908;8.364;2023-01-16T03:08:17;7.20;70.10
66140;DHT22;52945;51.908;8.364;2023-01-16T03:11:24;7.10;70.20
66140;DHT22;52945;51.908;8.364;2023-01-16T03:21:16;7.10;70.50
66140;DHT22;52945;51.908;8.364;2023-01-16T03:31:05;7.00;70.60
66140;DHT22;52945;51.908;8.364;2023-01-16T03:34:18;7.00;70.70
66140;DHT22;52945;51.908;8.364;2023-01-16T03:37:31;7.00;70.80
66140;DHT22;52945;51.908;8.364;2023-01-16T03:40:43;7.00;70.90
66140;DHT22;52945;51.908;8.364;2023-01-16T03:43:48;6.80;70.90
66140;DHT22;52945;51.908;8.364;2023-01-16T03:46:50;6.80;71.10
66140;DHT22;52945;51.908;8.364;2023-01-16T03:49:54;6.70;71.10
66140;DHT22;52945;51.908;8.364;2023-01-16T03:53:02;6.70;71.10
66140;DHT22;52945;51.908;8.364;2023-01-16T03:59:08;6.60;71.40
66140;DHT22;52945;51.908;8.364;2023-01-16T04:02:11;6.60;71.40
66140;DHT22;52945;51.908;8.364;2023-01-16T04:05:25;6.50;71.50
66140;DHT22;52945;51.908;8.364;2023-01-16T04:08:32;6.60;71.60
66140;DHT22;52945;51.908;8.364;2023-01-16T04:11:36;6.60;71.40
66140;DHT22;52945;51.908;8.364;2023-01-16T04:14:40;6.60;71.40
66140;DHT22;52945;51.908;8.364;2023-01-16T04:17:42;6.60;71.30
66140;DHT22;52945;51.908;8.364;2023-01-16T04:20:45;6.60;71.30
66140;DHT22;52945;51.908;8.364;2023-01-16T04:23:47;6.60;71.20
66140;DHT22;52945;51.908;8.364;2023-01-16T04:26:47;6.60;71.10
66140;DHT22;52945;51.908;8.364;2023-01-16T04:29:48;6.70;71.10
66140;DHT22;52945;51.908;8.364;2023-01-16T04:32:49;6.70;71.10
66140;DHT22;52945;51.908;8.364;2023-01-16T04:35:49;6.70;71.10
66140;DHT22;52945;51.908;8.364;2023-01-16T04:38:50;6.70;71.20
66140;DHT22;52945;51.908;8.364;2023-01-16T04:41:51;6.70;71.20
66140;DHT22;52945;51.908;8.364;2023-01-16T04:44:51;6.70;71.20
66140;DHT22;52945;51.908;8.364;2023-01-16T04:47:52;6.70;71.00
66140;DHT22;52945;51.908;8.364;2023-01-16T04:50:53;6.70;70.90
66140;DHT22;52945;51.908;8.364;2023-01-16T04:53:53;6.70;70.80
66140;DHT22;52945;51.908;8.364;2023-01-16T04:56:54;6.70;70.70
66140;DHT22;52945;51.908;8.364;2023-01-16T04:59:54;6.70;70.80
66140;DHT22;52945;51.908;8.364;2023-01-16T05:02:55;6.70;70.70
66140;DHT22;52945;51.908;8.364;2023-01-16T05:05:56;6.70;70.70
66140;DHT22;52945;51.908;8.364;2023-01-16T05:08:56;6.60;71.00
66140;DHT22;52945;51.908;8.364;2023-01-16T05:11:57;6.60;71.00
66140;DHT22;52945;51.908;8.364;2023-01-16T05:14:57;6.60;71.10
66140;DHT22;52945;51.908;8.364;2023-01-16T05:17:58;6.60;71.00
66140;DHT22;52945;51.908;8.364;2023-01-16T05:20:59;6.50;71.10
66140;DHT22;52945;51.908;8.364;2023-01-16T05:24:00;6.60;71.20
66140;DHT22;52945;51.908;8.364;2023-01-16T05:27:01;6.50;71.30
66140;DHT22;52945;51.908;8.364;2023-01-16T05:30:02;6.50;71.40
66140;DHT22;52945;51.908;8.364;2023-01-16T05:33:03;6.50;71.30
66140;DHT22;52945;51.908;8.364;2023-01-16T05:36:05;6.50;71.30
66140;DHT22;52945;51.908;8.364;2023-01-16T05:39:06;6.60;71.20
66140;DHT22;52945;51.908;8.364;2023-01-16T05:42:06;6.50;71.30
66140;DHT22;52945;51.908;8.364;2023-01-16T05:45:21;6.50;71.40
66140;DHT22;52945;51.908;8.364;2023-01-16T05:48:21;6.40;71.40
66140;DHT22;52945;51.908;8.364;2023-01-16T05:51:24;6.40;71.60
66140;DHT22;52945;51.908;8.364;2023-01-16T05:54:24;6.40;71.50
66140;DHT22;52945;51.908;8.364;2023-01-16T05:57:25;6.40;71.40
66140;DHT22;52945;51.908;8.364;2023-01-16T06:00:25;6.30;71.80
66140;DHT22;52945;51.908;8.364;2023-01-16T06:03:26;6.30;71.90
66140;DHT22;52945;51.908;8.364;2023-01-16T06:06:27;6.30;72.00
66140;DHT22;52945;51.908;8.364;2023-01-16T06:09:27;6.30;72.10
66140;DHT22;52945;51.908;8.364;2023-01-16T06:12:28;6.30;72.00
66140;DHT22;52945;51.908;8.364;2023-01-16T06:15:28;6.30;72.20
66140;DHT22;52945;51.908;8.364;2023-01-16T06:18:29;6.20;72.10
66140;DHT22;52945;51.908;8.364;2023-01-16T06:21:30;6.30;72.10
66140;DHT22;52945;51.908;8.364;2023-01-16T06:24:30;6.20;72.20
66140;DHT22;52945;51.908;8.364;2023-01-16T06:27:31;6.20;72.20
66140;DHT22;52945;51.908;8.364;2023-01-16T06:30:32;6.20;72.10
66140;DHT22;52945;51.908;8.364;2023-01-16T06:33:33;6.20;72.20
66140;DHT22;52945;51.908;8.364;2023-01-16T06:36:34;6.20;72.20
66140;DHT22;52945;51.908;8.364;2023-01-16T06:39:35;6.20;72.20
66140;DHT22;52945;51.908;8.364;2023-01-16T06:42:35;6.20;72.00
66140;DHT22;52945;51.908;8.364;2023-01-16T06:45:36;6.10;72.20
66140;DHT22;52945;51.908;8.364;2023-01-16T06:48:36;6.20;72.10
66140;DHT22;52945;51.908;8.364;2023-01-16T06:51:37;6.10;72.10
66140;DHT22;52945;51.908;8.364;2023-01-16T06:54:38;6.10;72.30
66140;DHT22;52945;51.908;8.364;2023-01-16T06:57:38;6.20;72.20
66140;DHT22;52945;51.908;8.364;2023-01-16T07:00:39;6.20;72.00
66140;DHT22;52945;51.908;8.364;2023-01-16T07:03:39;6.20;71.90
66140;DHT22;52945;51.908;8.364;2023-01-16T07:06:40;6.20;71.80
66140;DHT22;52945;51.908;8.364;2023-01-16T07:09:43;6.20;71.70
66140;DHT22;52945;51.908;8.364;2023-01-16T07:12:44;6.30;71.80
66140;DHT22;52945;51.908;8.364;2023-01-16T07:15:47;6.30;71.70
66140;DHT22;52945;51.908;8.364;2023-01-16T07:19:11;6.30;71.50
66140;DHT22;52945;51.908;8.364;2023-01-16T07:22:30;6.30;71.40
66140;DHT22;52945;51.908;8.364;2023-01-16T07:25:40;6.30;71.50
66140;DHT22;52945;51.908;8.364;2023-01-16T07:28:41;6.30;71.50
66140;DHT22;52945;51.908;8.364;2023-01-16T07:31:42;6.30;71.50
66140;DHT22;52945;51.908;8.364;2023-01-16T07:34:43;6.30;71.40
66140;DHT22;52945;51.908;8.364;2023-01-16T07:37:43;6.20;71.50
66140;DHT22;52945;51.908;8.364;2023-01-16T07:40:46;6.20;71.60
66140;DHT22;52945;51.908;8.364;2023-01-16T07:43:46;6.20;71.40
66140;DHT22;52945;51.908;8.364;2023-01-16T07:46:47;6.20;71.50
66140;DHT22;52945;51.908;8.364;2023-01-16T07:49:47;6.20;71.40
66140;DHT22;52945;51.908;8.364;2023-01-16T07:52:48;6.20;71.50
66140;DHT22;52945;51.908;8.364;2023-01-16T07:55:50;6.20;71.50
66140;DHT22;52945;51.908;8.364;2023-01-16T07:58:51;6.20;71.60
66140;DHT22;52945;51.908;8.364;2023-01-16T08:01:54;6.30;71.60
66140;DHT22;52945;51.908;8.364;2023-01-16T08:04:55;6.30;71.60
66140;DHT22;52945;51.908;8.364;2023-01-16T08:07:55;6.30;71.50
66140;DHT22;52945;51.908;8.364;2023-01-16T08:10:57;6.20;71.70
66140;DHT22;52945;51.908;8.364;2023-01-16T08:13:58;6.20;71.80
66140;DHT22;52945;51.908;8.364;2023-01-16T08:16:58;6.30;71.70
66140;DHT22;52945;51.908;8.364;2023-01-16T08:19:59;6.30;71.70
66140;DHT22;52945;51.908;8.364;2023-01-16T08:22:59;6.40;71.50
66140;DHT22;52945;51.908;8.364;2023-01-16T08:26:01;6.50;71.40
66140;DHT22;52945;51.908;8.364;2023-01-16T08:29:01;6.60;71.40
66140;DHT22;52945;51.908;8.364;2023-01-16T08:32:02;6.50;71.30
66140;DHT22;52945;51.908;8.364;2023-01-16T08:35:04;6.50;71.50
66140;DHT22;52945;51.908;8.364;2023-01-16T08:38:04;6.50;71.30
66140;DHT22;52945;51.908;8.364;2023-01-16T08:41:05;6.60;71.20
66140;DHT22;52945;51.908;8.364;2023-01-16T08:44:25;6.60;71.20
66140;DHT22;52945;51.908;8.364;2023-01-16T08:47:45;6.60;71.10
66140;DHT22;52945;51.908;8.364;2023-01-16T08:51:04;6.70;71.10
66140;DHT22;52945;51.908;8.364;2023-01-16T08:54:23;6.60;71.10
66140;DHT22;52945;51.908;8.364;2023-01-16T08:57:25;6.60;71.00
66140;DHT22;52945;51.908;8.364;2023-01-16T09:00:27;6.70;71.10
66140;DHT22;52945;51.908;8.364;2023-01-16T09:03:28;6.70;71.10
66140;DHT22;52945;51.908;8.364;2023-01-16T09:06:28;6.80;70.90
66140;DHT22;52945;51.908;8.364;2023-01-16T09:09:29;6.90;70.90
66140;DHT22;52945;51.908;8.364;2023-01-16T09:12:30;6.80;70.70
66140;DHT22;52945;51.908;8.364;2023-01-16T09:15:49;6.80;70.70
66140;DHT22;52945;51.908;8.364;2023-01-16T09:18:51;6.80;70.50
66140;DHT22;52945;51.908;8.364;2023-01-16T09:21:52;6.80;70.30
66140;DHT22;52945;51.908;8.364;2023-01-16T09:24:52;6.90;70.00
66140;DHT22;52945;51.908;8.364;2023-01-16T09:27:53;6.80;69.80
66140;DHT22;52945;51.908;8.364;2023-01-16T09:30:53;6.90;69.60
66140;DHT22;52945;51.908;8.364;2023-01-16T09:33:54;6.90;69.30
66140;DHT22;52945;51.908;8.364;2023-01-16T09:36:55;6.90;69.00
66140;DHT22;52945;51.908;8.364;2023-01-16T09:39:55;6.90;68.70
66140;DHT22;52945;51.908;8.364;2023-01-16T09:43:06;7.00;68.50
66140;DHT22;52945;51.908;8.364;2023-01-16T09:46:35;7.00;68.30
66140;DHT22;52945;51.908;8.364;2023-01-16T09:53:00;7.00;68.00
66140;DHT22;52945;51.908;8.364;2023-01-16T09:56:22;7.10;68.10
66140;DHT22;52945;51.908;8.364;2023-01-16T09:59:48;7.10;69.40
66140;DHT22;52945;51.908;8.364;2023-01-16T10:02:49;7.20;70.00
66140;DHT22;52945;51.908;8.364;2023-01-16T10:13:17;7.20;70.30
66140;DHT22;52945;51.908;8.364;2023-01-16T10:25:39;7.20;68.20
66140;DHT22;52945;51.908;8.364;2023-01-16T10:32:29;7.20;68.10
66140;DHT22;52945;51.908;8.364;2023-01-16T10:35:35;7.30;67.90
66140;DHT22;52945;51.908;8.364;2023-01-16T10:38:45;7.40;68.30
66140;DHT22;52945;51.908;8.364;2023-01-16T10:41:57;7.50;67.90
66140;DHT22;52945;51.908;8.364;2023-01-16T10:45:21;7.50;67.50
66140;DHT22;52945;51.908;8.364;2023-01-16T10:48:42;7.50;67.30
66140;DHT22;52945;51.908;8.364;2023-01-16T10:52:02;7.50;66.90
66140;DHT22;52945;51.908;8.364;2023-01-16T10:55:05;7.50;66.70
66140;DHT22;52945;51.908;8.364;2023-01-16T11:01:21;7.50;66.40
66140;DHT22;52945;51.908;8.364;2023-01-16T11:04:33;7.50;66.00
66140;DHT22;52945;51.908;8.364;2023-01-16T11:07:34;7.60;66.00
66140;DHT22;52945;51.908;8.364;2023-01-16T11:10:35;7.60;65.90
66140;DHT22;52945;51.908;8.364;2023-01-16T11:13:35;7.70;65.90
66140;DHT22;52945;51.908;8.364;2023-01-16T11:16:55;7.70;65.70
66140;DHT22;52945;51.908;8.364;2023-01-16T11:23:27;7.70;65.90
66140;DHT22;52945;51.908;8.364;2023-01-16T11:26:29;7.70;65.80
66140;DHT22;52945;51.908;8.364;2023-01-16T11:29:36;7.70;65.40
66140;DHT22;52945;51.908;8.364;2023-01-16T11:32:38;7.70;65.60
66140;DHT22;52945;51.908;8.364;2023-01-16T11:35:55;7.70;65.80
66140;DHT22;52945;51.908;8.364;2023-01-16T11:38:57;7.70;65.90
66140;DHT22;52945;51.908;8.364;2023-01-16T11:41:59;7.70;65.80
66140;DHT22;52945;51.908;8.364;2023-01-16T11:45:24;7.80;66.00
66140;DHT22;52945;51.908;8.364;2023-01-16T11:48:45;7.80;65.80
66140;DHT22;52945;51.908;8.364;2023-01-16T11:51:49;7.70;65.60
66140;DHT22;52945;51.908;8.364;2023-01-16T11:54:52;7.80;65.60
66140;DHT22;52945;51.908;8.364;2023-01-16T11:58:26;7.80;65.80
66140;DHT22;52945;51.908;8.364;2023-01-16T12:01:24;7.70;65.80
66140;DHT22;52945;51.908;8.364;2023-01-16T12:04:29;7.70;66.00
66140;DHT22;52945;51.908;8.364;2023-01-16T12:07:39;7.70;66.00
66140;DHT22;52945;51.908;8.364;2023-01-16T12:14:27;7.70;67.00
66140;DHT22;52945;51.908;8.364;2023-01-16T12:20:52;7.60;66.60
66140;DHT22;52945;51.908;8.364;2023-01-16T12:24:26;7.60;66.80
66140;DHT22;52945;51.908;8.364;2023-01-16T12:30:55;7.50;65.60
66140;DHT22;52945;51.908;8.364;2023-01-16T12:34:50;7.60;65.60
66140;DHT22;52945;51.908;8.364;2023-01-16T12:41:21;7.70;65.20
66140;DHT22;52945;51.908;8.364;2023-01-16T12:58:45;7.70;64.60
66140;DHT22;52945;51.908;8.364;2023-01-16T13:01:51;7.80;64.40
66140;DHT22;52945;51.908;8.364;2023-01-16T13:05:00;7.80;64.40
66140;DHT22;52945;51.908;8.364;2023-01-16T13:08:11;7.80;64.30
66140;DHT22;52945;51.908;8.364;2023-01-16T13:11:22;7.70;64.40
66140;DHT22;52945;51.908;8.364;2023-01-16T13:14:45;7.90;64.50
66140;DHT22;52945;51.908;8.364;2023-01-16T13:18:00;7.80;64.40
66140;DHT22;52945;51.908;8.364;2023-01-16T13:21:08;7.80;64.30
66140;DHT22;52945;51.908;8.364;2023-01-16T13:24:27;7.80;64.00
66140;DHT22;52945;51.908;8.364;2023-01-16T13:27:41;7.90;64.20
66140;DHT22;52945;51.908;8.364;2023-01-16T13:30:43;8.00;63.90
66140;DHT22;52945;51.908;8.364;2023-01-16T13:33:47;8.00;63.80
66140;DHT22;52945;51.908;8.364;2023-01-16T13:44:17;8.10;63.40
66140;DHT22;52945;51.908;8.364;2023-01-16T13:47:39;8.10;62.90
66140;DHT22;52945;51.908;8.364;2023-01-16T13:50:46;8.10;62.80
66140;DHT22;52945;51.908;8.364;2023-01-16T13:54:00;8.20;62.60
66140;DHT22;52945;51.908;8.364;2023-01-16T14:00:18;8.20;62.70
66140;DHT22;52945;51.908;8.364;2023-01-16T14:03:24;8.20;62.60
66140;DHT22;52945;51.908;8.364;2023-01-16T14:06:26;8.10;62.50
66140;DHT22;52945;51.908;8.364;2023-01-16T14:09:26;8.20;62.50
66140;DHT22;52945;51.908;8.364;2023-01-16T14:13:01;8.10;62.70
66140;DHT22;52945;51.908;8.364;2023-01-16T14:19:37;8.10;62.70
66140;DHT22;52945;51.908;8.364;2023-01-16T14:22:41;8.10;62.90
66140;DHT22;52945;51.908;8.364;2023-01-16T14:26:01;8.00;63.00
66140;DHT22;52945;51.908;8.364;2023-01-16T14:29:05;8.00;63.20
66140;DHT22;52945;51.908;8.364;2023-01-16T14:35:13;7.90;63.40
66140;DHT22;52945;51.908;8.364;2023-01-16T14:38:22;8.00;63.50
66140;DHT22;52945;51.908;8.364;2023-01-16T14:41:28;7.90;63.60
66140;DHT22;52945;51.908;8.364;2023-01-16T14:44:59;7.90;63.60
66140;DHT22;52945;51.908;8.364;2023-01-16T14:51:54;7.90;63.90
66140;DHT22;52945;51.908;8.364;2023-01-16T14:55:18;7.90;64.50
66140;DHT22;52945;51.908;8.364;2023-01-16T15:01:44;7.80;66.30
66140;DHT22;52945;51.908;8.364;2023-01-16T15:05:07;7.80;67.20
66140;DHT22;52945;51.908;8.364;2023-01-16T15:08:12;7.70;67.00
66140;DHT22;52945;51.908;8.364;2023-01-16T15:11:24;7.80;67.30
66140;DHT22;52945;51.908;8.364;2023-01-16T15:14:31;7.70;67.10
66140;DHT22;52945;51.908;8.364;2023-01-16T15:17:37;7.60;66.90
66140;DHT22;52945;51.908;8.364;2023-01-16T15:20:57;7.60;67.00
66140;DHT22;52945;51.908;8.364;2023-01-16T15:24:22;7.50;66.80
66140;DHT22;52945;51.908;8.364;2023-01-16T15:27:28;7.50;66.70
66140;DHT22;52945;51.908;8.364;2023-01-16T15:30:32;7.50;66.60
66140;DHT22;52945;51.908;8.364;2023-01-16T15:33:35;7.50;66.70
66140;DHT22;52945;51.908;8.364;2023-01-16T15:36:52;7.50;66.70
66140;DHT22;52945;51.908;8.364;2023-01-16T15:40:25;7.50;67.00
66140;DHT22;52945;51.908;8.364;2023-01-16T15:43:26;7.50;67.00
66140;DHT22;52945;51.908;8.364;2023-01-16T15:53:55;7.40;67.00
66140;DHT22;52945;51.908;8.364;2023-01-16T15:56:56;7.40;67.00
66140;DHT22;52945;51.908;8.364;2023-01-16T15:59:58;7.50;66.90
66140;DHT22;52945;51.908;8.364;2023-01-16T16:03:16;7.40;67.10
66140;DHT22;52945;51.908;8.364;2023-01-16T16:06:20;7.50;66.90
66140;DHT22;52945;51.908;8.364;2023-01-16T16:09:24;7.40;66.80
66140;DHT22;52945;51.908;8.364;2023-01-16T16:12:27;7.30;66.90
66140;DHT22;52945;51.908;8.364;2023-01-16T16:15:28;7.40;67.00
66140;DHT22;52945;51.908;8.364;2023-01-16T16:18:55;7.30;66.90
66140;DHT22;52945;51.908;8.364;2023-01-16T16:22:00;7.50;66.80
66140;DHT22;52945;51.908;8.364;2023-01-16T16:28:47;7.50;66.60
66140;DHT22;52945;51.908;8.364;2023-01-16T16:31:48;7.50;66.80
66140;DHT22;52945;51.908;8.364;2023-01-16T16:34:54;7.40;66.70
66140;DHT22;52945;51.908;8.364;2023-01-16T16:37:56;7.50;66.60
66140;DHT22;52945;51.908;8.364;2023-01-16T16:44:09;7.50;66.60
66140;DHT22;52945;51.908;8.364;2023-01-16T16:47:22;7.50;66.60
66140;DHT22;52945;51.908;8.364;2023-01-16T16:50:34;7.50;66.50
66140;DHT22;52945;51.908;8.364;2023-01-16T16:53:35;7.50;66.60
66140;DHT22;52945;51.908;8.364;2023-01-16T16:56:41;7.50;66.70
66140;DHT22;52945;51.908;8.364;2023-01-16T16:59:43;7.40;67.00
66140;DHT22;52945;51.908;8.364;2023-01-16T17:02:46;7.40;67.00
66140;DHT22;52945;51.908;8.364;2023-01-16T17:05:47;7.50;67.10
66140;DHT22;52945;51.908;8.364;2023-01-16T17:08:52;7.40;67.10
66140;DHT22;52945;51.908;8.364;2023-01-16T17:11:52;7.40;67.40
66140;DHT22;52945;51.908;8.364;2023-01-16T17:14:53;7.40;67.30
66140;DHT22;52945;51.908;8.364;2023-01-16T17:17:53;7.40;67.40
66140;DHT22;52945;51.908;8.364;2023-01-16T17:20:57;7.40;67.40
66140;DHT22;52945;51.908;8.364;2023-01-16T17:23:58;7.30;67.50
66140;DHT22;52945;51.908;8.364;2023-01-16T17:26:58;7.40;67.40
66140;DHT22;52945;51.908;8.364;2023-01-16T17:30:01;7.40;67.40
66140;DHT22;52945;51.908;8.364;2023-01-16T17:36:21;7.40;67.40
66140;DHT22;52945;51.908;8.364;2023-01-16T17:39:22;7.40;67.50
66140;DHT22;52945;51.908;8.364;2023-01-16T17:42:23;7.40;67.60
66140;DHT22;52945;51.908;8.364;2023-01-16T17:45:44;7.50;67.80
66140;DHT22;52945;51.908;8.364;2023-01-16T17:49:00;7.50;68.10
66140;DHT22;52945;51.908;8.364;2023-01-16T17:52:00;7.50;68.70
66140;DHT22;52945;51.908;8.364;2023-01-16T17:55:01;7.50;69.40
66140;DHT22;52945;51.908;8.364;2023-01-16T17:58:31;7.50;69.90
66140;DHT22;52945;51.908;8.364;2023-01-16T18:01:53;7.50;70.30
66140;DHT22;52945;51.908;8.364;2023-01-16T18:04:54;7.50;70.80
66140;DHT22;52945;51.908;8.364;2023-01-16T18:07:54;7.40;71.10
66140;DHT22;52945;51.908;8.364;2023-01-16T18:10:55;7.50;71.40
66140;DHT22;52945;51.908;8.364;2023-01-16T18:13:56;7.40;71.80
66140;DHT22;52945;51.908;8.364;2023-01-16T18:17:20;7.40;71.90
66140;DHT22;52945;51.908;8.364;2023-01-16T18:20:29;7.50;72.10
66140;DHT22;52945;51.908;8.364;2023-01-16T18:23:29;7.40;72.20
66140;DHT22;52945;51.908;8.364;2023-01-16T18:26:30;7.40;72.30
66140;DHT22;52945;51.908;8.364;2023-01-16T18:29:31;7.40;72.40
66140;DHT22;52945;51.908;8.364;2023-01-16T18:32:31;7.40;72.40
66140;DHT22;52945;51.908;8.364;2023-01-16T18:35:33;7.40;72.30
66140;DHT22;52945;51.908;8.364;2023-01-16T18:38:35;7.20;72.00
66140;DHT22;52945;51.908;8.364;2023-01-16T18:41:55;7.30;72.30
66140;DHT22;52945;51.908;8.364;2023-01-16T18:45:15;7.20;72.20
66140;DHT22;52945;51.908;8.364;2023-01-16T18:48:35;7.20;72.30
66140;DHT22;52945;51.908;8.364;2023-01-16T18:51:54;7.10;72.10
66140;DHT22;52945;51.908;8.364;2023-01-16T18:55:13;7.10;72.20
66140;DHT22;52945;51.908;8.364;2023-01-16T18:58:33;7.20;72.10
66140;DHT22;52945;51.908;8.364;2023-01-16T19:01:52;7.20;71.90
66140;DHT22;52945;51.908;8.364;2023-01-16T19:04:55;7.20;71.90
66140;DHT22;52945;51.908;8.364;2023-01-16T19:07:58;7.10;71.90
66140;DHT22;52945;51.908;8.364;2023-01-16T19:10:59;7.10;71.70
66140;DHT22;52945;51.908;8.364;2023-01-16T19:14:00;7.20;71.80
66140;DHT22;52945;51.908;8.364;2023-01-16T19:17:01;7.20;71.70
66140;DHT22;52945;51.908;8.364;2023-01-16T19:20:01;7.20;71.60
66140;DHT22;52945;51.908;8.364;2023-01-16T19:23:03;7.20;71.30
66140;DHT22;52945;51.908;8.364;2023-01-16T19:26:04;7.20;71.30
66140;DHT22;52945;51.908;8.364;2023-01-16T19:29:05;7.20;71.50
66140;DHT22;52945;51.908;8.364;2023-01-16T19:32:06;7.10;71.20
66140;DHT22;52945;51.908;8.364;2023-01-16T19:35:07;7.20;71.20
66140;DHT22;52945;51.908;8.364;2023-01-16T19:38:08;7.10;71.30
66140;DHT22;52945;51.908;8.364;2023-01-16T19:41:08;7.10;71.30
66140;DHT22;52945;51.908;8.364;2023-01-16T19:44:29;7.20;71.10
66140;DHT22;52945;51.908;8.364;2023-01-16T19:47:51;7.20;71.00
66140;DHT22;52945;51.908;8.364;2023-01-16T19:50:52;7.20;71.00
66140;DHT22;52945;51.908;8.364;2023-01-16T19:53:53;7.20;71.00
66140;DHT22;52945;51.908;8.364;2023-01-16T19:56:54;7.20;70.90
66140;DHT22;52945;51.908;8.364;2023-01-16T19:59:55;7.20;71.00
66140;DHT22;52945;51.908;8.364;2023-01-16T20:02:55;7.10;70.80
66140;DHT22;52945;51.908;8.364;2023-01-16T20:05:56;7.20;71.00
66140;DHT22;52945;51.908;8.364;2023-01-16T20:08:57;7.20;70.90
66140;DHT22;52945;51.908;8.364;2023-01-16T20:11:58;7.20;71.00
66140;DHT22;52945;51.908;8.364;2023-01-16T20:15:17;7.20;70.80
66140;DHT22;52945;51.908;8.364;2023-01-16T20:18:18;7.20;71.00
66140;DHT22;52945;51.908;8.364;2023-01-16T20:21:19;7.20;71.10
66140;DHT22;52945;51.908;8.364;2023-01-16T20:24:20;7.30;71.30
66140;DHT22;52945;51.908;8.364;2023-01-16T20:27:21;7.20;71.40
66140;DHT22;52945;51.908;8.364;2023-01-16T20:30:21;7.30;71.50
66140;DHT22;52945;51.908;8.364;2023-01-16T20:33:41;7.30;71.50
66140;DHT22;52945;51.908;8.364;2023-01-16T20:36:41;7.20;71.50
66140;DHT22;52945;51.908;8.364;2023-01-16T20:39:42;7.30;71.90
66140;DHT22;52945;51.908;8.364;2023-01-16T20:42:43;7.30;72.10
66140;DHT22;52945;51.908;8.364;2023-01-16T20:46:05;7.20;72.10
66140;DHT22;52945;51.908;8.364;2023-01-16T20:49:06;7.20;72.20
66140;DHT22;52945;51.908;8.364;2023-01-16T20:52:08;7.20;72.50
66140;DHT22;52945;51.908;8.364;2023-01-16T20:55:09;7.20;72.50
66140;DHT22;52945;51.908;8.364;2023-01-16T20:58:12;7.20;72.90
66140;DHT22;52945;51.908;8.364;2023-01-16T21:01:13;7.20;72.90
66140;DHT22;52945;51.908;8.364;2023-01-16T21:04:15;7.20;73.10
66140;DHT22;52945;51.908;8.364;2023-01-16T21:07:16;7.20;73.10
66140;DHT22;52945;51.908;8.364;2023-01-16T21:10:17;7.10;73.50
66140;DHT22;52945;51.908;8.364;2023-01-16T21:13:17;7.20;73.60
66140;DHT22;52945;51.908;8.364;2023-01-16T21:16:37;7.20;73.80
66140;DHT22;52945;51.908;8.364;2023-01-16T21:19:57;7.10;73.90
66140;DHT22;52945;51.908;8.364;2023-01-16T21:23:16;7.10;73.90
66140;DHT22;52945;51.908;8.364;2023-01-16T21:26:17;7.10;73.80
66140;DHT22;52945;51.908;8.364;2023-01-16T21:29:18;7.10;74.00
66140;DHT22;52945;51.908;8.364;2023-01-16T21:32:18;7.20;73.90
66140;DHT22;52945;51.908;8.364;2023-01-16T21:35:20;7.20;73.90
66140;DHT22;52945;51.908;8.364;2023-01-16T21:38:20;7.20;74.20
66140;DHT22;52945;51.908;8.364;2023-01-16T21:41:21;7.20;74.20
66140;DHT22;52945;51.908;8.364;2023-01-16T21:44:22;7.20;74.30
66140;DHT22;52945;51.908;8.364;2023-01-16T21:47:41;7.10;74.50
66140;DHT22;52945;51.908;8.364;2023-01-16T21:50:42;7.20;74.40
66140;DHT22;52945;51.908;8.364;2023-01-16T21:53:45;7.20;74.70
66140;DHT22;52945;51.908;8.364;2023-01-16T21:56:45;7.20;74.80
66140;DHT22;52945;51.908;8.364;2023-01-16T21:59:48;7.30;74.80
66140;DHT22;52945;51.908;8.364;2023-01-16T22:02:50;7.30;74.90
66140;DHT22;52945;51.908;8.364;2023-01-16T22:05:51;7.20;75.00
66140;DHT22;52945;51.908;8.364;2023-01-16T22:08:53;7.20;75.10
66140;DHT22;52945;51.908;8.364;2023-01-16T22:11:54;7.20;75.10
66140;DHT22;52945;51.908;8.364;2023-01-16T22:15:13;7.30;75.10
66140;DHT22;52945;51.908;8.364;2023-01-16T22:18:32;7.20;75.10